createdAt,value
2022-12-28T00:02:14.796Z,4.88
2022-12-28T00:04:41.252Z,4.57
2022-12-28T00:07:07.690Z,7.60
2022-12-28T00:09:34.168Z,4.97
2022-12-28T00:12:00.706Z,4.40
2022-12-28T00:14:27.163Z,4.15
2022-12-28T00:16:53.737Z,3.53
2022-12-28T00:19:20.219Z,3.85
2022-12-28T00:21:46.819Z,3.58
2022-12-28T00:24:18.399Z,4.13
2022-12-28T00:26:44.875Z,5.32
2022-12-28T00:29:11.982Z,5.43
2022-12-28T00:31:38.560Z,5.18
2022-12-28T00:34:05.089Z,4.00
2022-12-28T00:37:09.901Z,4.28
2022-12-28T00:39:19.548Z,4.88
2022-12-28T00:41:46.360Z,4.60
2022-12-28T00:44:12.792Z,4.50
2022-12-28T00:46:39.232Z,4.10
2022-12-28T00:49:05.643Z,4.25
2022-12-28T00:51:32.145Z,4.65
2022-12-28T00:53:58.561Z,4.45
2022-12-28T00:56:25.005Z,3.72
2022-12-28T00:58:55.485Z,4.10
2022-12-28T01:01:23.241Z,3.92
2022-12-28T01:03:49.742Z,4.20
2022-12-28T01:06:17.572Z,4.80
2022-12-28T01:08:44.619Z,5.55
2022-12-28T01:11:16.020Z,4.80
2022-12-28T01:13:42.546Z,5.32
2022-12-28T01:16:16.242Z,5.50
2022-12-28T01:18:43.348Z,5.38
2022-12-28T01:21:11.140Z,5.95
2022-12-28T01:23:37.596Z,5.88
2022-12-28T01:26:04.511Z,4.97
2022-12-28T01:28:30.949Z,7.28
2022-12-28T01:30:57.395Z,7.93
2022-12-28T01:33:23.861Z,8.55
2022-12-28T01:35:50.318Z,8.48
2022-12-28T01:38:16.743Z,9.70
2022-12-28T01:40:44.295Z,7.38
2022-12-28T01:43:13.525Z,7.90
2022-12-28T01:45:40.507Z,8.07
2022-12-28T01:48:14.717Z,9.07
2022-12-28T01:50:41.227Z,9.93
2022-12-28T01:53:07.809Z,9.73
2022-12-28T01:55:35.294Z,9.07
2022-12-28T01:58:04.287Z,8.70
2022-12-28T02:00:30.855Z,10.18
2022-12-28T02:02:59.513Z,9.27
2022-12-28T02:05:28.934Z,10.05
2022-12-28T02:07:59.862Z,8.43
2022-12-28T02:10:43.571Z,7.33
2022-12-28T02:13:12.677Z,9.18
2022-12-28T02:15:39.175Z,9.88
2022-12-28T02:18:05.655Z,7.90
2022-12-28T02:20:50.561Z,7.72
2022-12-28T02:23:34.366Z,8.68
2022-12-28T02:26:03.577Z,8.00
2022-12-28T02:29:08.467Z,7.30
2022-12-28T02:31:43.958Z,6.65
2022-12-28T02:34:16.395Z,9.00
2022-12-28T02:36:45.968Z,12.25
2022-12-28T02:39:23.906Z,13.25
2022-12-28T02:41:50.556Z,13.82
2022-12-28T02:44:37.240Z,11.88
2022-12-28T02:47:22.789Z,11.38
2022-12-28T02:50:07.541Z,12.30
2022-12-28T02:52:58.558Z,11.70
2022-12-28T02:55:52.421Z,11.30
2022-12-28T02:58:35.536Z,10.90
2022-12-28T03:01:26.830Z,11.55
2022-12-28T03:04:10.783Z,10.70
2022-12-28T03:06:59.254Z,11.45
2022-12-28T03:09:36.916Z,11.45
2022-12-28T03:12:29.552Z,10.43
2022-12-28T03:15:06.579Z,11.88
2022-12-28T03:17:53.489Z,9.88
2022-12-28T03:20:40.984Z,9.50
2022-12-28T03:23:27.446Z,9.82
2022-12-28T03:26:12.735Z,9.80
2022-12-28T03:28:58.717Z,11.68
2022-12-28T03:31:25.929Z,12.90
2022-12-28T03:33:53.705Z,12.07
2022-12-28T03:36:26.232Z,12.63
2022-12-28T03:38:55.403Z,15.05
2022-12-28T03:41:34.549Z,13.38
2022-12-28T03:44:04.615Z,11.82
2022-12-28T03:46:33.912Z,12.63
2022-12-28T03:49:01.459Z,12.00
2022-12-28T03:51:29.103Z,11.70
2022-12-28T03:53:55.550Z,10.73
2022-12-28T03:56:26.338Z,10.80
2022-12-28T03:58:53.025Z,9.63
2022-12-28T04:01:19.674Z,11.00
2022-12-28T04:03:46.303Z,9.15
2022-12-28T04:06:13.738Z,8.80
2022-12-28T04:08:40.161Z,8.75
2022-12-28T04:11:06.645Z,9.88
2022-12-28T04:13:33.613Z,9.95
2022-12-28T04:16:01.922Z,10.40
2022-12-28T04:18:28.752Z,10.73
2022-12-28T04:20:55.214Z,10.50
2022-12-28T04:23:21.704Z,10.52
2022-12-28T04:26:01.460Z,9.30
2022-12-28T04:28:28.389Z,9.30
2022-12-28T04:30:55.111Z,8.40
2022-12-28T04:33:21.687Z,8.32
2022-12-28T04:35:48.284Z,8.40
2022-12-28T04:38:15.070Z,7.97
2022-12-28T04:40:41.514Z,8.63
2022-12-28T04:43:08.042Z,9.93
2022-12-28T04:45:34.490Z,11.38
2022-12-28T04:48:01.003Z,9.10
2022-12-28T04:50:27.524Z,9.98
2022-12-28T04:52:54.650Z,8.27
2022-12-28T04:55:31.857Z,8.60
2022-12-28T04:57:59.552Z,8.82
2022-12-28T05:00:26.059Z,7.22
2022-12-28T05:02:52.600Z,7.30
2022-12-28T05:05:19.121Z,6.18
2022-12-28T05:07:45.574Z,5.70
2022-12-28T05:10:11.941Z,4.63
2022-12-28T05:12:38.429Z,5.47
2022-12-28T05:15:05.190Z,6.68
2022-12-28T05:17:31.664Z,5.68
2022-12-28T05:19:58.089Z,6.00
2022-12-28T05:22:24.559Z,5.35
2022-12-28T05:24:51.096Z,6.63
2022-12-28T05:27:17.524Z,6.22
2022-12-28T05:29:43.972Z,7.35
2022-12-28T05:32:10.397Z,7.32
2022-12-28T05:34:36.812Z,13.23
2022-12-28T05:37:03.282Z,16.27
2022-12-28T05:39:29.691Z,14.30
2022-12-28T05:42:00.178Z,13.07
2022-12-28T05:44:27.153Z,12.75
2022-12-28T05:46:53.773Z,12.13
2022-12-28T05:49:20.341Z,10.45
2022-12-28T05:51:48.575Z,10.35
2022-12-28T05:54:15.058Z,8.75
2022-12-28T05:56:41.459Z,7.88
2022-12-28T05:59:09.065Z,8.32
2022-12-28T06:01:37.493Z,8.48
2022-12-28T06:04:05.771Z,7.78
2022-12-28T06:06:33.728Z,7.45
2022-12-28T06:09:00.583Z,8.13
2022-12-28T06:11:27.757Z,8.65
2022-12-28T06:13:54.749Z,8.57
2022-12-28T06:16:28.645Z,7.22
2022-12-28T06:18:55.472Z,8.70
2022-12-28T06:21:21.923Z,7.93
2022-12-28T06:23:49.061Z,7.35
2022-12-28T06:26:16.644Z,8.23
2022-12-28T06:28:43.544Z,8.40
2022-12-28T06:31:14.825Z,7.13
2022-12-28T06:33:41.414Z,6.70
2022-12-28T06:36:19.985Z,7.03
2022-12-28T06:38:47.999Z,7.10
2022-12-28T06:41:15.391Z,6.47
2022-12-28T06:43:42.696Z,6.07
2022-12-28T06:46:09.531Z,8.20
2022-12-28T06:48:36.298Z,14.05
2022-12-28T06:51:04.608Z,15.63
2022-12-28T06:53:32.645Z,17.05
2022-12-28T06:56:00.041Z,16.73
2022-12-28T06:58:27.135Z,19.10
2022-12-28T07:00:55.037Z,19.63
2022-12-28T07:03:22.187Z,20.00
2022-12-28T07:05:48.659Z,20.13
2022-12-28T07:08:15.344Z,22.20
2022-12-28T07:10:41.776Z,21.70
2022-12-28T07:13:08.242Z,23.80
2022-12-28T07:15:35.805Z,23.10
2022-12-28T07:18:02.321Z,23.63
2022-12-28T07:20:28.731Z,25.15
2022-12-28T07:22:55.137Z,25.05
2022-12-28T07:25:21.640Z,23.02
2022-12-28T07:27:48.135Z,20.50
2022-12-28T07:30:14.977Z,18.90
2022-12-28T07:32:41.687Z,17.08
2022-12-28T07:35:08.277Z,18.45
2022-12-28T07:37:34.656Z,19.10
2022-12-28T07:40:01.173Z,19.50
2022-12-28T07:42:30.839Z,16.58
2022-12-28T07:44:57.257Z,10.63
2022-12-28T07:47:23.780Z,10.68
2022-12-28T07:49:50.269Z,10.68
2022-12-28T07:52:16.777Z,10.70
2022-12-28T07:54:43.214Z,9.52
2022-12-28T07:57:09.635Z,8.95
2022-12-28T07:59:36.184Z,9.30
2022-12-28T08:02:02.732Z,9.00
2022-12-28T08:04:29.763Z,8.57
2022-12-28T08:06:56.189Z,9.75
2022-12-28T08:09:23.921Z,9.88
2022-12-28T08:11:50.350Z,29.88
2022-12-28T08:14:16.875Z,28.45
2022-12-28T08:16:44.532Z,26.38
2022-12-28T08:19:11.183Z,25.90
2022-12-28T08:21:39.288Z,28.95
2022-12-28T08:24:06.940Z,28.60
2022-12-28T08:26:35.176Z,27.27
2022-12-28T08:29:02.810Z,27.83
2022-12-28T08:31:33.645Z,29.00
2022-12-28T08:34:01.226Z,27.50
2022-12-28T08:36:27.972Z,26.10
2022-12-28T08:38:55.069Z,25.90
2022-12-28T08:41:22.350Z,24.58
2022-12-28T08:43:49.975Z,22.92
2022-12-28T08:46:17.725Z,21.67
2022-12-28T08:48:45.866Z,19.42
2022-12-28T08:51:23.557Z,15.80
2022-12-28T08:53:50.802Z,14.02
2022-12-28T08:56:18.438Z,10.80
2022-12-28T08:58:46.272Z,12.70
2022-12-28T09:01:12.823Z,13.27
2022-12-28T09:03:41.357Z,14.40
2022-12-28T09:06:12.255Z,13.15
2022-12-28T09:08:39.339Z,13.57
2022-12-28T09:11:07.269Z,13.07
2022-12-28T09:13:34.569Z,12.73
2022-12-28T09:16:02.447Z,12.80
2022-12-28T09:18:28.886Z,12.32
2022-12-28T09:20:56.176Z,10.75
2022-12-28T09:23:23.378Z,12.57
2022-12-28T09:25:50.632Z,9.57
2022-12-28T09:28:17.096Z,10.38
2022-12-28T09:30:44.577Z,10.88
2022-12-28T14:49:31.691Z,19.05
2022-12-28T14:52:07.793Z,22.23
2022-12-28T14:54:55.223Z,16.98
2022-12-28T14:57:35.714Z,16.30
2022-12-28T15:00:06.763Z,16.58
2022-12-28T15:02:33.293Z,13.23
2022-12-28T15:05:01.257Z,16.00
2022-12-28T15:07:27.781Z,15.88
2022-12-28T15:09:54.941Z,18.05
2022-12-28T15:12:30.255Z,22.77
2022-12-28T15:14:57.357Z,20.73
2022-12-28T15:17:26.859Z,16.73
2022-12-28T15:19:58.645Z,17.88
2022-12-28T15:22:25.798Z,22.73
2022-12-28T15:24:54.451Z,16.58
2022-12-28T15:27:20.857Z,21.45
2022-12-28T15:30:04.847Z,18.13
2022-12-28T15:32:32.276Z,14.55
2022-12-28T15:35:00.061Z,16.00
2022-12-28T15:37:27.288Z,16.48
2022-12-28T15:39:54.395Z,15.02
2022-12-28T15:42:32.476Z,17.05
2022-12-28T15:45:02.273Z,15.57
2022-12-28T15:47:29.931Z,17.17
2022-12-28T15:49:58.814Z,17.00
2022-12-28T15:52:25.257Z,17.80
2022-12-28T15:54:53.444Z,19.40
2022-12-28T15:57:19.944Z,20.00
2022-12-28T15:59:46.459Z,22.25
2022-12-28T16:02:14.512Z,22.77
2022-12-28T16:04:41.059Z,22.83
2022-12-28T16:07:08.760Z,23.02
2022-12-28T16:09:35.199Z,25.83
2022-12-28T16:12:03.447Z,24.05
2022-12-28T16:14:29.891Z,25.48
2022-12-28T16:16:57.209Z,25.77
2022-12-28T16:19:23.718Z,24.80
2022-12-28T16:21:51.841Z,28.83
2022-12-28T16:24:19.864Z,40.42
2022-12-28T16:26:47.422Z,37.28
2022-12-28T16:29:13.927Z,28.23
2022-12-28T16:31:41.928Z,29.20
2022-12-28T16:34:12.791Z,32.92
2022-12-28T16:36:39.322Z,32.33
2022-12-28T16:39:07.490Z,30.17
2022-12-28T16:41:37.429Z,29.80
2022-12-28T16:44:10.208Z,31.73
2022-12-28T16:46:36.648Z,34.03
2022-12-28T16:49:04.460Z,40.90
2022-12-28T16:51:31.180Z,42.13
2022-12-28T16:53:59.286Z,47.42
2022-12-28T16:56:25.776Z,65.28
2022-12-28T16:58:56.458Z,80.28
2022-12-28T17:01:23.015Z,586.90
2022-12-28T17:03:50.384Z,568.47
2022-12-28T17:06:16.871Z,595.75
2022-12-28T17:08:44.854Z,631.17
2022-12-28T17:11:12.068Z,527.90
2022-12-28T17:13:39.605Z,766.20
2022-12-28T17:16:06.308Z,535.15
2022-12-28T17:18:33.516Z,316.25
2022-12-28T17:21:06.312Z,151.32
2022-12-28T17:23:34.922Z,73.32
2022-12-28T17:26:03.707Z,46.58
2022-12-28T17:28:31.403Z,35.08
2022-12-28T17:31:08.189Z,33.45
2022-12-28T17:33:39.846Z,30.38
2022-12-28T17:36:06.920Z,31.60
2022-12-28T17:38:34.151Z,32.90
2022-12-28T17:41:06.037Z,34.97
2022-12-28T17:46:02.981Z,208.00
2022-12-28T17:48:31.427Z,86.30
2022-12-28T17:51:00.854Z,182.90
2022-12-28T17:53:29.201Z,91.38
2022-12-28T17:55:56.411Z,197.68
2022-12-28T17:58:22.902Z,279.20
2022-12-28T18:00:53.815Z,332.45
2022-12-28T18:03:21.145Z,103.50
2022-12-28T18:05:49.851Z,53.45
2022-12-28T18:08:16.513Z,41.53
2022-12-28T18:10:44.760Z,41.70
2022-12-28T18:13:11.834Z,37.15
2022-12-28T18:15:39.495Z,36.60
2022-12-28T18:18:05.934Z,33.92
2022-12-28T18:20:33.313Z,35.05
2022-12-28T18:23:02.688Z,35.22
2022-12-28T18:25:33.525Z,32.78
2022-12-28T18:28:01.374Z,29.65
2022-12-28T18:30:28.636Z,28.75
2022-12-28T18:32:55.085Z,28.40
2022-12-28T18:35:25.758Z,28.73
2022-12-28T18:37:52.216Z,28.77
2022-12-28T18:40:20.408Z,27.70
2022-12-28T18:42:46.948Z,28.75
2022-12-28T18:45:19.532Z,28.52
2022-12-28T18:47:45.970Z,31.73
2022-12-28T18:50:12.424Z,30.08
2022-12-28T18:52:40.620Z,31.05
2022-12-28T18:55:07.333Z,30.17
2022-12-28T18:57:34.571Z,32.28
2022-12-28T19:00:01.076Z,30.58
2022-12-28T19:02:30.110Z,32.88
2022-12-28T19:04:56.660Z,33.00
2022-12-28T19:07:23.915Z,34.90
2022-12-28T19:10:12.469Z,35.67
2022-12-28T19:12:42.260Z,37.92
2022-12-28T19:15:08.994Z,37.50
2022-12-28T19:17:36.247Z,34.25
2022-12-28T19:20:02.971Z,36.17
2022-12-28T19:22:30.748Z,34.92
2022-12-28T19:24:57.219Z,43.33
2022-12-28T19:27:24.439Z,37.45
2022-12-28T19:29:50.939Z,35.70
2022-12-28T19:32:18.205Z,37.15
2022-12-28T19:34:44.633Z,34.35
2022-12-28T19:37:11.836Z,35.45
2022-12-28T19:39:38.288Z,46.75
2022-12-28T19:42:04.833Z,41.33
2022-12-28T19:44:32.264Z,42.75
2022-12-28T19:46:58.851Z,46.30
2022-12-28T19:49:26.288Z,46.20
2022-12-28T19:51:52.741Z,49.50
2022-12-28T19:54:20.080Z,48.03
2022-12-28T19:56:46.540Z,41.47
2022-12-28T19:59:13.812Z,38.65
2022-12-28T20:01:40.288Z,37.47
2022-12-28T20:04:13.439Z,35.10
2022-12-28T20:06:41.483Z,34.60
2022-12-28T20:09:08.871Z,29.98
2022-12-28T20:11:35.487Z,30.67
2022-12-28T20:14:04.221Z,29.60
2022-12-28T20:16:32.325Z,29.17
2022-12-28T20:19:00.272Z,26.92
2022-12-28T20:21:26.725Z,25.33
2022-12-28T20:23:56.232Z,24.02
2022-12-28T20:26:23.414Z,25.35
2022-12-28T20:28:51.747Z,28.25
2022-12-28T20:31:18.594Z,25.67
2022-12-28T20:33:48.147Z,26.98
2022-12-28T20:36:16.059Z,26.50
2022-12-28T20:38:43.478Z,28.45
2022-12-28T20:41:35.400Z,29.85
2022-12-28T20:44:03.953Z,25.42
2022-12-28T20:46:30.631Z,27.95
2022-12-28T20:49:01.241Z,26.98
2022-12-28T20:51:27.929Z,27.90
2022-12-28T20:53:54.427Z,29.17
2022-12-28T20:56:23.256Z,26.10
2022-12-28T20:58:49.904Z,25.90
2022-12-28T21:01:18.350Z,28.15
2022-12-28T21:03:45.426Z,27.15
2022-12-28T21:06:13.033Z,27.17
2022-12-28T21:08:39.521Z,28.30
2022-12-28T21:11:06.818Z,24.80
2022-12-28T21:13:33.534Z,25.55
2022-12-28T21:16:04.225Z,24.00
2022-12-28T21:18:30.904Z,22.20
2022-12-28T21:21:01.216Z,20.85
2022-12-28T21:23:29.928Z,22.52
2022-12-28T21:26:03.124Z,22.05
2022-12-28T21:28:29.556Z,21.33
2022-12-28T21:30:57.390Z,22.00
2022-12-28T21:33:24.196Z,20.30
2022-12-28T21:36:04.316Z,22.95
2022-12-28T21:38:31.619Z,21.17
2022-12-28T21:41:02.567Z,20.02
2022-12-28T21:43:30.526Z,21.53
2022-12-28T21:46:02.312Z,22.25
2022-12-28T21:48:30.541Z,22.77
2022-12-28T21:51:03.292Z,23.05
2022-12-28T21:53:29.807Z,24.02
2022-12-28T21:55:57.155Z,24.05
2022-12-28T21:58:23.812Z,29.27
2022-12-28T22:01:09.653Z,29.25
2022-12-28T22:03:54.635Z,29.02
2022-12-28T22:06:23.013Z,28.83
2022-12-28T22:09:07.873Z,28.52
2022-12-28T22:11:53.589Z,25.73
2022-12-28T22:14:20.065Z,25.67
2022-12-28T22:16:46.654Z,24.10
2022-12-28T22:19:14.410Z,23.70
2022-12-28T22:21:43.092Z,23.52
2022-12-28T22:24:10.326Z,23.40
2022-12-28T22:26:36.802Z,22.40
2022-12-28T22:29:04.649Z,21.55
2022-12-28T22:31:31.151Z,22.40
2022-12-28T22:34:03.192Z,23.65
2022-12-28T22:36:33.250Z,26.42
2022-12-28T22:39:00.435Z,25.70
2022-12-28T22:41:26.972Z,27.27
2022-12-28T22:43:56.000Z,29.60
2022-12-28T22:46:22.523Z,29.65
2022-12-28T22:48:49.849Z,29.98
2022-12-28T22:51:16.471Z,28.92
2022-12-28T22:53:45.906Z,26.75
2022-12-28T22:56:19.521Z,25.85
2022-12-28T22:58:47.128Z,26.05
2022-12-28T23:01:15.726Z,23.60
2022-12-28T23:03:45.891Z,24.05
2022-12-28T23:06:13.672Z,23.65
2022-12-28T23:08:40.924Z,21.92
2022-12-28T23:11:26.831Z,23.65
2022-12-28T23:13:53.956Z,24.13
2022-12-28T23:16:20.431Z,23.98
2022-12-28T23:19:06.793Z,24.25
2022-12-28T23:21:53.740Z,24.25
2022-12-28T23:24:39.287Z,23.02
2022-12-28T23:27:20.848Z,22.65
2022-12-28T23:29:47.734Z,24.08
2022-12-28T23:32:14.216Z,23.80
2022-12-28T23:34:40.825Z,23.05
2022-12-28T23:37:07.238Z,22.30
2022-12-28T23:39:33.894Z,23.05
2022-12-28T23:42:00.353Z,24.30
2022-12-28T23:44:27.200Z,23.52
2022-12-28T23:46:58.624Z,23.67
2022-12-28T23:49:25.968Z,24.55
2022-12-28T23:51:52.540Z,22.77
2022-12-28T23:54:19.399Z,23.95
2022-12-28T23:56:46.105Z,24.85
2022-12-28T23:59:12.811Z,26.17
